sensor_id;sensor_type;location;lat;lon;timestamp;pressure;altitude;pressure_sealevel;temperature;humidity
37202;BME280;37799;52.390;6.136;2023-06-10T00:02:04;101548.72;;;19.34;69.33
37202;BME280;37799;52.390;6.136;2023-06-10T00:04:31;101551.03;;;19.23;70.61
37202;BME280;37799;52.390;6.136;2023-06-10T00:06:56;101549.75;;;19.14;70.53
37202;BME280;37799;52.390;6.136;2023-06-10T00:09:22;101551.75;;;19.09;71.03
37202;BME280;37799;52.390;6.136;2023-06-10T00:11:48;101548.81;;;19.15;70.43
37202;BME280;37799;52.390;6.136;2023-06-10T00:14:13;101553.00;;;19.02;70.06
37202;BME280;37799;52.390;6.136;2023-06-10T00:16:39;101553.84;;;19.03;71.90
37202;BME280;37799;52.390;6.136;2023-06-10T00:19:05;101549.56;;;19.00;71.91
37202;BME280;37799;52.390;6.136;2023-06-10T00:21:31;101554.13;;;19.14;70.20
37202;BME280;37799;52.390;6.136;2023-06-10T00:24:06;101551.56;;;18.95;72.04
37202;BME280;37799;52.390;6.136;2023-06-10T00:26:32;101554.28;;;18.94;71.72
37202;BME280;37799;52.390;6.136;2023-06-10T00:28:57;101542.16;;;18.91;72.69
37202;BME280;37799;52.390;6.136;2023-06-10T00:31:23;101555.13;;;18.77;74.00
37202;BME280;37799;52.390;6.136;2023-06-10T00:33:48;101557.47;;;18.64;75.45
37202;BME280;37799;52.390;6.136;2023-06-10T00:36:14;101554.34;;;18.56;74.89
37202;BME280;37799;52.390;6.136;2023-06-10T00:38:39;101559.72;;;18.53;76.04
37202;BME280;37799;52.390;6.136;2023-06-10T00:41:06;101547.97;;;18.43;77.58
37202;BME280;37799;52.390;6.136;2023-06-10T00:43:31;101553.78;;;18.31;79.77
37202;BME280;37799;52.390;6.136;2023-06-10T00:45:57;101548.75;;;18.45;79.22
37202;BME280;37799;52.390;6.136;2023-06-10T00:48:22;101562.06;;;18.21;80.13
37202;BME280;37799;52.390;6.136;2023-06-10T00:50:48;101568.25;;;18.20;80.06
37202;BME280;37799;52.390;6.136;2023-06-10T00:53:13;101561.94;;;18.24;80.74
37202;BME280;37799;52.390;6.136;2023-06-10T00:55:40;101562.03;;;18.23;81.52
37202;BME280;37799;52.390;6.136;2023-06-10T00:58:06;101573.47;;;18.02;83.34
37202;BME280;37799;52.390;6.136;2023-06-10T01:00:32;101564.38;;;18.10;82.14
37202;BME280;37799;52.390;6.136;2023-06-10T01:02:57;101566.19;;;18.08;83.14
37202;BME280;37799;52.390;6.136;2023-06-10T01:05:24;101568.47;;;17.97;85.00
37202;BME280;37799;52.390;6.136;2023-06-10T01:08:03;101569.78;;;17.87;85.92
37202;BME280;37799;52.390;6.136;2023-06-10T01:13:01;101568.34;;;17.59;89.17
37202;BME280;37799;52.390;6.136;2023-06-10T01:15:33;101561.28;;;17.61;90.42
37202;BME280;37799;52.390;6.136;2023-06-10T01:18:04;101573.97;;;17.50;92.20
37202;BME280;37799;52.390;6.136;2023-06-10T01:20:31;101575.22;;;17.42;95.42
37202;BME280;37799;52.390;6.136;2023-06-10T01:23:01;101568.47;;;17.36;97.57
37202;BME280;37799;52.390;6.136;2023-06-10T01:25:29;101569.72;;;17.27;99.09
37202;BME280;37799;52.390;6.136;2023-06-10T01:33:27;101577.91;;;17.20;100.00
37202;BME280;37799;52.390;6.136;2023-06-10T01:35:53;101575.31;;;17.18;100.00
37202;BME280;37799;52.390;6.136;2023-06-10T01:38:21;101573.28;;;17.04;100.00
37202;BME280;37799;52.390;6.136;2023-06-10T01:40:48;101578.06;;;16.95;100.00
37202;BME280;37799;52.390;6.136;2023-06-10T01:43:14;101578.41;;;16.86;100.00
37202;BME280;37799;52.390;6.136;2023-06-10T01:45:40;101581.25;;;16.79;100.00
37202;BME280;37799;52.390;6.136;2023-06-10T01:48:06;101576.28;;;16.73;100.00
37202;BME280;37799;52.390;6.136;2023-06-10T01:50:31;101579.41;;;16.60;100.00
37202;BME280;37799;52.390;6.136;2023-06-10T01:52:59;101577.16;;;16.50;100.00
37202;BME280;37799;52.390;6.136;2023-06-10T01:55:25;101578.84;;;16.51;100.00
37202;BME280;37799;52.390;6.136;2023-06-10T01:57:50;101583.69;;;16.39;100.00
37202;BME280;37799;52.390;6.136;2023-06-10T02:00:17;101584.00;;;16.31;100.00
37202;BME280;37799;52.390;6.136;2023-06-10T02:02:42;101589.56;;;16.22;100.00
37202;BME280;37799;52.390;6.136;2023-06-10T02:05:07;101584.47;;;16.19;100.00
37202;BME280;37799;52.390;6.136;2023-06-10T02:07:33;101577.75;;;16.12;100.00
37202;BME280;37799;52.390;6.136;2023-06-10T02:09:58;101572.72;;;16.07;100.00
37202;BME280;37799;52.390;6.136;2023-06-10T02:12:23;101578.06;;;16.04;100.00
37202;BME280;37799;52.390;6.136;2023-06-10T02:14:49;101586.03;;;16.00;100.00
37202;BME280;37799;52.390;6.136;2023-06-10T02:17:15;101586.50;;;15.87;100.00
37202;BME280;37799;52.390;6.136;2023-06-10T02:19:41;101584.78;;;15.86;100.00
37202;BME280;37799;52.390;6.136;2023-06-10T02:22:08;101588.44;;;15.82;100.00
37202;BME280;37799;52.390;6.136;2023-06-10T02:24:35;101584.16;;;15.80;100.00
37202;BME280;37799;52.390;6.136;2023-06-10T02:27:01;101577.44;;;15.73;100.00
37202;BME280;37799;52.390;6.136;2023-06-10T02:29:27;101588.97;;;15.67;100.00
37202;BME280;37799;52.390;6.136;2023-06-10T02:31:52;101577.63;;;15.68;100.00
37202;BME280;37799;52.390;6.136;2023-06-10T02:34:18;101583.56;;;15.72;100.00
37202;BME280;37799;52.390;6.136;2023-06-10T02:36:43;101581.94;;;15.69;100.00
37202;BME280;37799;52.390;6.136;2023-06-10T02:39:09;101587.38;;;15.63;100.00
37202;BME280;37799;52.390;6.136;2023-06-10T02:41:34;101584.28;;;15.77;100.00
37202;BME280;37799;52.390;6.136;2023-06-10T02:44:00;101586.41;;;15.66;100.00
37202;BME280;37799;52.390;6.136;2023-06-10T02:46:25;101584.59;;;15.68;100.00
37202;BME280;37799;52.390;6.136;2023-06-10T02:48:51;101581.25;;;15.64;100.00
37202;BME280;37799;52.390;6.136;2023-06-10T02:51:17;101575.97;;;15.66;100.00
37202;BME280;37799;52.390;6.136;2023-06-10T02:53:42;101585.66;;;15.62;100.00
37202;BME280;37799;52.390;6.136;2023-06-10T02:56:08;101574.63;;;15.54;100.00
37202;BME280;37799;52.390;6.136;2023-06-10T02:58:33;101584.31;;;15.50;100.00
37202;BME280;37799;52.390;6.136;2023-06-10T03:00:58;101580.84;;;15.50;100.00
37202;BME280;37799;52.390;6.136;2023-06-10T03:03:24;101589.41;;;15.53;100.00
37202;BME280;37799;52.390;6.136;2023-06-10T03:05:50;101583.47;;;15.50;100.00
37202;BME280;37799;52.390;6.136;2023-06-10T03:08:16;101588.63;;;15.51;100.00
37202;BME280;37799;52.390;6.136;2023-06-10T03:10:41;101595.00;;;15.43;100.00
37202;BME280;37799;52.390;6.136;2023-06-10T03:13:06;101595.91;;;15.42;100.00
37202;BME280;37799;52.390;6.136;2023-06-10T03:15:32;101593.59;;;15.32;100.00
37202;BME280;37799;52.390;6.136;2023-06-10T03:17:59;101594.50;;;15.31;100.00
37202;BME280;37799;52.390;6.136;2023-06-10T03:20:25;101593.59;;;15.32;100.00
37202;BME280;37799;52.390;6.136;2023-06-10T03:22:53;101596.38;;;15.28;100.00
37202;BME280;37799;52.390;6.136;2023-06-10T03:25:18;101597.47;;;15.21;100.00
37202;BME280;37799;52.390;6.136;2023-06-10T03:27:46;101597.38;;;15.24;100.00
37202;BME280;37799;52.390;6.136;2023-06-10T03:30:12;101596.50;;;15.23;100.00
37202;BME280;37799;52.390;6.136;2023-06-10T03:32:38;101597.00;;;15.34;100.00
37202;BME280;37799;52.390;6.136;2023-06-10T03:35:04;101598.09;;;15.29;100.00
37202;BME280;37799;52.390;6.136;2023-06-10T03:37:29;101605.75;;;15.33;100.00
37202;BME280;37799;52.390;6.136;2023-06-10T03:39:54;101601.19;;;15.40;100.00
37202;BME280;37799;52.390;6.136;2023-06-10T03:42:20;101604.78;;;15.36;100.00
37202;BME280;37799;52.390;6.136;2023-06-10T03:44:45;101597.91;;;15.33;100.00
37202;BME280;37799;52.390;6.136;2023-06-10T03:47:10;101602.16;;;15.36;100.00
37202;BME280;37799;52.390;6.136;2023-06-10T03:49:37;101608.22;;;15.38;100.00
37202;BME280;37799;52.390;6.136;2023-06-10T03:52:03;101606.50;;;15.37;100.00
37202;BME280;37799;52.390;6.136;2023-06-10T03:54:28;101604.59;;;15.42;100.00
37202;BME280;37799;52.390;6.136;2023-06-10T03:56:54;101602.59;;;15.50;100.00
37202;BME280;37799;52.390;6.136;2023-06-10T03:59:19;101613.91;;;15.49;100.00
37202;BME280;37799;52.390;6.136;2023-06-10T04:01:44;101611.16;;;15.54;100.00
37202;BME280;37799;52.390;6.136;2023-06-10T04:04:13;101607.81;;;15.49;100.00
37202;BME280;37799;52.390;6.136;2023-06-10T04:06:40;101606.72;;;15.56;100.00
37202;BME280;37799;52.390;6.136;2023-06-10T04:09:06;101607.53;;;15.58;100.00
37202;BME280;37799;52.390;6.136;2023-06-10T04:11:32;101602.31;;;15.58;100.00
37202;BME280;37799;52.390;6.136;2023-06-10T04:13:57;101604.84;;;15.61;100.00
37202;BME280;37799;52.390;6.136;2023-06-10T04:16:23;101614.97;;;15.70;100.00
37202;BME280;37799;52.390;6.136;2023-06-10T04:18:48;101616.34;;;15.80;100.00
37202;BME280;37799;52.390;6.136;2023-06-10T04:21:13;101617.94;;;15.84;100.00
37202;BME280;37799;52.390;6.136;2023-06-10T04:23:39;101619.66;;;15.85;100.00
37202;BME280;37799;52.390;6.136;2023-06-10T04:26:04;101626.69;;;15.83;100.00
37202;BME280;37799;52.390;6.136;2023-06-10T04:28:30;101624.56;;;15.95;100.00
37202;BME280;37799;52.390;6.136;2023-06-10T04:30:56;101629.47;;;16.04;100.00
37202;BME280;37799;52.390;6.136;2023-06-10T04:33:21;101627.63;;;16.06;100.00
37202;BME280;37799;52.390;6.136;2023-06-10T04:35:46;101626.72;;;16.07;100.00
37202;BME280;37799;52.390;6.136;2023-06-10T04:38:13;101631.66;;;16.14;100.00
37202;BME280;37799;52.390;6.136;2023-06-10T04:40:38;101626.34;;;16.17;100.00
37202;BME280;37799;52.390;6.136;2023-06-10T04:43:04;101628.66;;;16.25;100.00
37202;BME280;37799;52.390;6.136;2023-06-10T04:45:29;101629.19;;;16.35;100.00
37202;BME280;37799;52.390;6.136;2023-06-10T04:47:55;101633.31;;;16.40;100.00
37202;BME280;37799;52.390;6.136;2023-06-10T04:50:21;101634.19;;;16.41;100.00
37202;BME280;37799;52.390;6.136;2023-06-10T04:52:46;101640.09;;;16.46;100.00
37202;BME280;37799;52.390;6.136;2023-06-10T04:55:11;101635.66;;;16.48;100.00
37202;BME280;37799;52.390;6.136;2023-06-10T04:57:37;101641.44;;;16.56;100.00
37202;BME280;37799;52.390;6.136;2023-06-10T05:00:03;101637.59;;;16.65;100.00
37202;BME280;37799;52.390;6.136;2023-06-10T05:02:31;101627.50;;;16.79;100.00
37202;BME280;37799;52.390;6.136;2023-06-10T05:04:57;101630.38;;;16.95;100.00
37202;BME280;37799;52.390;6.136;2023-06-10T05:07:23;101637.31;;;16.96;100.00
37202;BME280;37799;52.390;6.136;2023-06-10T05:09:48;101640.78;;;16.96;100.00
37202;BME280;37799;52.390;6.136;2023-06-10T05:12:14;101638.31;;;16.93;100.00
37202;BME280;37799;52.390;6.136;2023-06-10T05:14:39;101640.47;;;17.04;100.00
37202;BME280;37799;52.390;6.136;2023-06-10T05:17:05;101632.31;;;17.12;100.00
37202;BME280;37799;52.390;6.136;2023-06-10T05:19:33;101638.63;;;17.28;100.00
37202;BME280;37799;52.390;6.136;2023-06-10T05:22:00;101642.56;;;17.38;100.00
37202;BME280;37799;52.390;6.136;2023-06-10T05:24:26;101639.91;;;17.60;100.00
37202;BME280;37799;52.390;6.136;2023-06-10T05:26:51;101645.50;;;17.73;100.00
37202;BME280;37799;52.390;6.136;2023-06-10T05:29:16;101643.25;;;17.84;100.00
37202;BME280;37799;52.390;6.136;2023-06-10T05:31:42;101656.56;;;18.00;100.00
37202;BME280;37799;52.390;6.136;2023-06-10T05:34:07;101646.66;;;18.64;100.00
37202;BME280;37799;52.390;6.136;2023-06-10T05:36:34;101645.28;;;19.47;100.00
37202;BME280;37799;52.390;6.136;2023-06-10T05:38:59;101654.56;;;20.21;100.00
37202;BME280;37799;52.390;6.136;2023-06-10T05:41:24;101650.56;;;20.95;97.29
37202;BME280;37799;52.390;6.136;2023-06-10T05:43:50;101657.56;;;22.00;94.83
37202;BME280;37799;52.390;6.136;2023-06-10T05:46:15;101662.22;;;22.39;81.84
37202;BME280;37799;52.390;6.136;2023-06-10T05:48:41;101656.50;;;23.15;77.56
37202;BME280;37799;52.390;6.136;2023-06-10T05:51:06;101659.00;;;23.83;71.61
37202;BME280;37799;52.390;6.136;2023-06-10T05:53:32;101657.69;;;24.52;67.76
37202;BME280;37799;52.390;6.136;2023-06-10T05:55:57;101658.13;;;25.07;64.07
37202;BME280;37799;52.390;6.136;2023-06-10T05:58:24;101667.28;;;25.26;58.97
37202;BME280;37799;52.390;6.136;2023-06-10T06:00:49;101662.53;;;25.54;57.44
37202;BME280;37799;52.390;6.136;2023-06-10T06:03:15;101664.16;;;25.33;57.61
37202;BME280;37799;52.390;6.136;2023-06-10T06:05:40;101665.13;;;25.32;57.22
37202;BME280;37799;52.390;6.136;2023-06-10T06:08:07;101670.50;;;25.54;54.68
37202;BME280;37799;52.390;6.136;2023-06-10T06:10:32;101674.41;;;25.72;55.91
37202;BME280;37799;52.390;6.136;2023-06-10T06:12:59;101670.13;;;25.58;55.16
37202;BME280;37799;52.390;6.136;2023-06-10T06:15:25;101679.28;;;25.78;53.50
37202;BME280;37799;52.390;6.136;2023-06-10T06:17:50;101674.66;;;25.69;54.92
37202;BME280;37799;52.390;6.136;2023-06-10T06:20:21;101675.59;;;25.68;53.93
37202;BME280;37799;52.390;6.136;2023-06-10T06:22:47;101676.38;;;26.04;53.72
37202;BME280;37799;52.390;6.136;2023-06-10T06:25:12;101671.34;;;26.34;52.50
37202;BME280;37799;52.390;6.136;2023-06-10T06:27:38;101674.00;;;26.57;52.32
37202;BME280;37799;52.390;6.136;2023-06-10T06:30:04;101674.50;;;27.05;49.83
37202;BME280;37799;52.390;6.136;2023-06-10T06:32:29;101670.13;;;27.15;47.27
37202;BME280;37799;52.390;6.136;2023-06-10T06:34:55;101672.81;;;27.04;47.10
37202;BME280;37799;52.390;6.136;2023-06-10T06:37:24;101669.03;;;27.18;48.33
37202;BME280;37799;52.390;6.136;2023-06-10T06:39:50;101673.09;;;27.01;45.81
37202;BME280;37799;52.390;6.136;2023-06-10T06:42:16;101670.84;;;26.74;46.89
37202;BME280;37799;52.390;6.136;2023-06-10T06:44:42;101674.16;;;26.98;47.61
37202;BME280;37799;52.390;6.136;2023-06-10T06:47:07;101671.38;;;27.32;46.26
37202;BME280;37799;52.390;6.136;2023-06-10T06:49:32;101670.13;;;27.68;47.54
37202;BME280;37799;52.390;6.136;2023-06-10T06:51:58;101674.69;;;27.24;45.07
37202;BME280;37799;52.390;6.136;2023-06-10T06:54:23;101669.69;;;27.31;47.46
37202;BME280;37799;52.390;6.136;2023-06-10T06:56:49;101671.25;;;27.33;45.49
37202;BME280;37799;52.390;6.136;2023-06-10T06:59:15;101670.81;;;27.49;44.03
37202;BME280;37799;52.390;6.136;2023-06-10T07:01:42;101673.00;;;28.07;45.62
37202;BME280;37799;52.390;6.136;2023-06-10T07:04:07;101682.13;;;28.35;42.80
37202;BME280;37799;52.390;6.136;2023-06-10T07:06:33;101681.97;;;28.06;42.92
37202;BME280;37799;52.390;6.136;2023-06-10T07:08:58;101674.91;;;27.95;43.46
37202;BME280;37799;52.390;6.136;2023-06-10T07:11:24;101677.34;;;27.77;42.73
37202;BME280;37799;52.390;6.136;2023-06-10T07:13:50;101679.59;;;27.82;42.74
37202;BME280;37799;52.390;6.136;2023-06-10T07:16:15;101677.13;;;27.90;42.81
37202;BME280;37799;52.390;6.136;2023-06-10T07:18:40;101677.13;;;27.90;42.01
37202;BME280;37799;52.390;6.136;2023-06-10T07:21:06;101682.25;;;28.33;43.04
37202;BME280;37799;52.390;6.136;2023-06-10T07:23:31;101688.94;;;28.58;42.43
37202;BME280;37799;52.390;6.136;2023-06-10T07:25:56;101681.75;;;28.99;40.89
37202;BME280;37799;52.390;6.136;2023-06-10T07:28:22;101684.25;;;28.91;40.55
37202;BME280;37799;52.390;6.136;2023-06-10T07:30:47;101688.78;;;29.19;41.96
37202;BME280;37799;52.390;6.136;2023-06-10T07:33:12;101687.38;;;29.05;40.51
37202;BME280;37799;52.390;6.136;2023-06-10T07:35:38;101683.59;;;29.08;40.81
37202;BME280;37799;52.390;6.136;2023-06-10T07:38:03;101688.47;;;28.93;39.98
37202;BME280;37799;52.390;6.136;2023-06-10T07:40:29;101686.22;;;28.89;40.01
37202;BME280;37799;52.390;6.136;2023-06-10T07:42:55;101694.69;;;29.32;39.31
37202;BME280;37799;52.390;6.136;2023-06-10T07:45:20;101698.19;;;29.23;38.78
37202;BME280;37799;52.390;6.136;2023-06-10T07:47:46;101691.31;;;29.30;40.51
37202;BME280;37799;52.390;6.136;2023-06-10T07:50:11;101697.19;;;29.63;39.43
37202;BME280;37799;52.390;6.136;2023-06-10T07:52:36;101692.69;;;29.73;38.32
37202;BME280;37799;52.390;6.136;2023-06-10T07:55:02;101689.75;;;29.37;38.74
37202;BME280;37799;52.390;6.136;2023-06-10T07:57:29;101692.28;;;29.39;38.55
37202;BME280;37799;52.390;6.136;2023-06-10T07:59:56;101703.66;;;29.70;38.07
37202;BME280;37799;52.390;6.136;2023-06-10T08:02:22;101698.34;;;29.60;39.31
37202;BME280;37799;52.390;6.136;2023-06-10T08:04:48;101699.31;;;29.69;37.23
37202;BME280;37799;52.390;6.136;2023-06-10T08:07:13;101695.75;;;29.78;37.70
37202;BME280;37799;52.390;6.136;2023-06-10T08:09:38;101699.38;;;30.06;37.38
37202;BME280;37799;52.390;6.136;2023-06-10T08:12:06;101699.22;;;30.08;38.35
37202;BME280;37799;52.390;6.136;2023-06-10T08:14:31;101703.72;;;30.44;37.43
37202;BME280;37799;52.390;6.136;2023-06-10T08:16:57;101706.38;;;30.99;36.31
37202;BME280;37799;52.390;6.136;2023-06-10T08:19:22;101708.03;;;30.82;35.33
37202;BME280;37799;52.390;6.136;2023-06-10T08:21:47;101706.41;;;30.72;35.94
37202;BME280;37799;52.390;6.136;2023-06-10T08:24:13;101709.34;;;30.96;35.62
37202;BME280;37799;52.390;6.136;2023-06-10T08:26:40;101701.66;;;30.66;35.64
37202;BME280;37799;52.390;6.136;2023-06-10T08:29:05;101706.28;;;30.36;34.69
37202;BME280;37799;52.390;6.136;2023-06-10T08:31:31;101708.09;;;30.73;34.69
37202;BME280;37799;52.390;6.136;2023-06-10T08:33:56;101713.72;;;30.70;34.71
37202;BME280;37799;52.390;6.136;2023-06-10T08:36:21;101703.53;;;30.18;35.58
37202;BME280;37799;52.390;6.136;2023-06-10T08:38:47;101705.28;;;30.10;36.32
37202;BME280;37799;52.390;6.136;2023-06-10T08:41:14;101706.13;;;30.10;35.79
37202;BME280;37799;52.390;6.136;2023-06-10T08:43:45;101707.72;;;30.31;36.82
37202;BME280;37799;52.390;6.136;2023-06-10T08:46:14;101707.81;;;30.76;35.25
37202;BME280;37799;52.390;6.136;2023-06-10T08:48:43;101704.69;;;31.16;33.96
37202;BME280;37799;52.390;6.136;2023-06-10T08:51:11;101700.16;;;31.26;34.41
37202;BME280;37799;52.390;6.136;2023-06-10T08:53:38;101709.44;;;31.04;36.07
37202;BME280;37799;52.390;6.136;2023-06-10T08:56:09;101700.19;;;31.52;33.97
37202;BME280;37799;52.390;6.136;2023-06-10T08:58:35;101709.34;;;31.67;32.42
37202;BME280;37799;52.390;6.136;2023-06-10T09:01:07;101711.06;;;31.94;34.38
37202;BME280;37799;52.390;6.136;2023-06-10T09:03:33;101708.59;;;32.69;34.30
37202;BME280;37799;52.390;6.136;2023-06-10T09:06:00;101711.03;;;33.05;31.92
37202;BME280;37799;52.390;6.136;2023-06-10T09:08:26;101705.91;;;32.69;31.22
37202;BME280;37799;52.390;6.136;2023-06-10T09:10:52;101705.03;;;32.26;31.83
37202;BME280;37799;52.390;6.136;2023-06-10T09:13:17;101705.28;;;32.07;31.83
37202;BME280;37799;52.390;6.136;2023-06-10T09:15:43;101706.03;;;32.68;32.07
37202;BME280;37799;52.390;6.136;2023-06-10T09:18:11;101705.03;;;32.26;31.97
37202;BME280;37799;52.390;6.136;2023-06-10T09:20:38;101696.56;;;32.05;32.12
37202;BME280;37799;52.390;6.136;2023-06-10T09:23:04;101704.09;;;32.36;32.43
37202;BME280;37799;52.390;6.136;2023-06-10T09:25:37;101712.34;;;32.93;32.20
37202;BME280;37799;52.390;6.136;2023-06-10T09:28:03;101707.00;;;33.17;31.75
37202;BME280;37799;52.390;6.136;2023-06-10T09:30:30;101703.69;;;33.23;31.39
37202;BME280;37799;52.390;6.136;2023-06-10T09:32:59;101696.94;;;33.11;31.75
37202;BME280;37799;52.390;6.136;2023-06-10T09:35:29;101691.56;;;33.03;31.60
37202;BME280;37799;52.390;6.136;2023-06-10T09:37:56;101695.09;;;33.11;30.39
37202;BME280;37799;52.390;6.136;2023-06-10T09:40:21;101700.13;;;32.98;32.77
37202;BME280;37799;52.390;6.136;2023-06-10T09:42:55;101698.78;;;33.19;30.16
37202;BME280;37799;52.390;6.136;2023-06-10T09:45:21;101692.63;;;33.34;30.03
37202;BME280;37799;52.390;6.136;2023-06-10T09:47:47;101695.31;;;33.51;30.36
37202;BME280;37799;52.390;6.136;2023-06-10T09:50:13;101687.94;;;33.36;31.12
37202;BME280;37799;52.390;6.136;2023-06-10T09:52:38;101691.25;;;33.71;31.61
37202;BME280;37799;52.390;6.136;2023-06-10T09:55:07;101688.22;;;33.17;29.84
37202;BME280;37799;52.390;6.136;2023-06-10T09:57:33;101695.44;;;33.25;30.29
37202;BME280;37799;52.390;6.136;2023-06-10T09:59:59;101689.59;;;33.62;29.99
37202;BME280;37799;52.390;6.136;2023-06-10T10:02:24;101698.81;;;33.76;29.72
37202;BME280;37799;52.390;6.136;2023-06-10T10:04:50;101687.44;;;33.49;30.75
37202;BME280;37799;52.390;6.136;2023-06-10T10:07:15;101691.38;;;34.02;28.95
37202;BME280;37799;52.390;6.136;2023-06-10T10:09:41;101691.81;;;34.22;30.29
37202;BME280;37799;52.390;6.136;2023-06-10T10:12:09;101697.00;;;34.63;29.28
37202;BME280;37799;52.390;6.136;2023-06-10T10:14:36;101690.41;;;34.34;28.78
37202;BME280;37799;52.390;6.136;2023-06-10T10:17:04;101688.91;;;34.31;29.51
37202;BME280;37799;52.390;6.136;2023-06-10T10:19:32;101686.91;;;33.86;29.71
37202;BME280;37799;52.390;6.136;2023-06-10T10:22:07;101692.44;;;34.32;28.60
37202;BME280;37799;52.390;6.136;2023-06-10T10:24:37;101683.16;;;34.51;27.98
37202;BME280;37799;52.390;6.136;2023-06-10T10:27:14;101688.16;;;34.54;28.47
37202;BME280;37799;52.390;6.136;2023-06-10T10:29:46;101678.59;;;34.12;28.12
37202;BME280;37799;52.390;6.136;2023-06-10T10:32:13;101683.06;;;34.28;28.89
37202;BME280;37799;52.390;6.136;2023-06-10T10:34:49;101682.34;;;34.34;29.30
37202;BME280;37799;52.390;6.136;2023-06-10T10:37:17;101677.63;;;34.36;28.58
37202;BME280;37799;52.390;6.136;2023-06-10T10:39:42;101672.16;;;34.92;28.27
37202;BME280;37799;52.390;6.136;2023-06-10T10:42:08;101665.09;;;35.51;28.51
37202;BME280;37799;52.390;6.136;2023-06-10T10:44:39;101668.19;;;35.48;26.72
37202;BME280;37799;52.390;6.136;2023-06-10T10:47:08;101671.34;;;35.29;27.11
37202;BME280;37799;52.390;6.136;2023-06-10T10:49:35;101670.84;;;35.86;26.31
37202;BME280;37799;52.390;6.136;2023-06-10T10:52:03;101669.59;;;35.36;25.87
37202;BME280;37799;52.390;6.136;2023-06-10T10:54:35;101673.88;;;35.07;26.41
37202;BME280;37799;52.390;6.136;2023-06-10T10:57:17;101668.69;;;34.75;27.11
37202;BME280;37799;52.390;6.136;2023-06-10T10:59:52;101657.28;;;35.04;26.22
37202;BME280;37799;52.390;6.136;2023-06-10T11:02:18;101641.88;;;35.50;26.98
37202;BME280;37799;52.390;6.136;2023-06-10T11:04:46;101649.34;;;35.02;25.74
37202;BME280;37799;52.390;6.136;2023-06-10T11:07:11;101648.16;;;34.82;26.14
37202;BME280;37799;52.390;6.136;2023-06-10T11:09:57;101644.34;;;34.99;26.54
37202;BME280;37799;52.390;6.136;2023-06-10T11:12:24;101643.25;;;35.08;26.78
37202;BME280;37799;52.390;6.136;2023-06-10T11:14:56;101650.16;;;35.26;24.94
37202;BME280;37799;52.390;6.136;2023-06-10T11:17:21;101643.31;;;35.00;26.48
37202;BME280;37799;52.390;6.136;2023-06-10T11:19:47;101636.88;;;35.47;26.48
37202;BME280;37799;52.390;6.136;2023-06-10T11:22:18;101634.06;;;36.44;26.86
37202;BME280;37799;52.390;6.136;2023-06-10T11:24:50;101637.59;;;37.02;25.41
37202;BME280;37799;52.390;6.136;2023-06-10T11:27:18;101640.56;;;36.85;24.74
37202;BME280;37799;52.390;6.136;2023-06-10T11:32:34;101636.25;;;36.55;24.52
37202;BME280;37799;52.390;6.136;2023-06-10T11:35:02;101625.28;;;36.78;24.58
37202;BME280;37799;52.390;6.136;2023-06-10T11:37:28;101634.97;;;36.87;23.66
37202;BME280;37799;52.390;6.136;2023-06-10T11:39:54;101636.28;;;36.98;22.45
37202;BME280;37799;52.390;6.136;2023-06-10T11:42:21;101629.38;;;36.88;22.38
37202;BME280;37799;52.390;6.136;2023-06-10T11:44:50;101628.06;;;36.84;22.40
37202;BME280;37799;52.390;6.136;2023-06-10T11:47:17;101634.78;;;36.52;21.89
37202;BME280;37799;52.390;6.136;2023-06-10T11:49:42;101635.28;;;36.41;22.15
37202;BME280;37799;52.390;6.136;2023-06-10T11:52:08;101629.38;;;36.01;23.93
37202;BME280;37799;52.390;6.136;2023-06-10T11:54:33;101631.03;;;35.43;23.30
37202;BME280;37799;52.390;6.136;2023-06-10T11:56:59;101630.97;;;34.91;23.14
37202;BME280;37799;52.390;6.136;2023-06-10T11:59:33;101628.50;;;35.42;23.48
37202;BME280;37799;52.390;6.136;2023-06-10T12:01:58;101623.16;;;36.01;22.77
37202;BME280;37799;52.390;6.136;2023-06-10T12:04:24;101631.22;;;36.16;21.14
37202;BME280;37799;52.390;6.136;2023-06-10T12:06:52;101624.88;;;36.38;22.85
37202;BME280;37799;52.390;6.136;2023-06-10T12:09:27;101626.84;;;36.66;21.41
37202;BME280;37799;52.390;6.136;2023-06-10T12:12:03;101629.16;;;36.18;21.36
37202;BME280;37799;52.390;6.136;2023-06-10T12:14:54;101618.97;;;35.69;21.31
37202;BME280;37799;52.390;6.136;2023-06-10T12:17:22;101613.38;;;36.15;21.82
37202;BME280;37799;52.390;6.136;2023-06-10T12:19:50;101624.94;;;36.45;21.21
37202;BME280;37799;52.390;6.136;2023-06-10T12:22:15;101622.38;;;35.78;21.33
37202;BME280;37799;52.390;6.136;2023-06-10T12:24:46;101614.69;;;35.60;21.26
37202;BME280;37799;52.390;6.136;2023-06-10T12:27:22;101608.47;;;35.59;21.73
37202;BME280;37799;52.390;6.136;2023-06-10T12:29:52;101611.16;;;36.54;20.53
37202;BME280;37799;52.390;6.136;2023-06-10T12:32:20;101605.03;;;36.10;21.00
37202;BME280;37799;52.390;6.136;2023-06-10T12:34:48;101616.03;;;36.29;21.32
37202;BME280;37799;52.390;6.136;2023-06-10T12:37:13;101611.78;;;36.20;20.15
37202;BME280;37799;52.390;6.136;2023-06-10T12:39:40;101602.47;;;36.80;21.25
37202;BME280;37799;52.390;6.136;2023-06-10T12:42:06;101607.19;;;37.42;20.92
37202;BME280;37799;52.390;6.136;2023-06-10T12:44:38;101607.03;;;37.85;20.14
37202;BME280;37799;52.390;6.136;2023-06-10T12:47:10;101607.13;;;37.64;18.62
37202;BME280;37799;52.390;6.136;2023-06-10T12:49:37;101602.00;;;36.91;18.27
37202;BME280;37799;52.390;6.136;2023-06-10T12:52:04;101599.47;;;36.69;19.61
37202;BME280;37799;52.390;6.136;2023-06-10T12:54:30;101598.81;;;36.30;18.74
37202;BME280;37799;52.390;6.136;2023-06-10T12:56:55;101593.56;;;35.34;19.65